Wilsonia, California
Current Conditions -  °F | °C
As of 4:56 AM on Saturday 01 Nov 2014 (Local Time) from KBIH Reporting Station
Clear Clear  
Wind Chill: 10°   Ceiling: Unl
Heat Index: 10°   Visibility: 10mi
Dew Point:   Wind: 9mph
Humidity: 52%   Direction: 140°SE
Pressure: 29.58"   Gusts: NA
Location:  36.7872°N, 118.66°W
Report Text: KBIH 011156Z AUTO 14008KT 10SM CLR 10/01 A2958 RMK AO2 SLP982 60000 T01000006 10139 20083 55006
Loading
Personal Weather Stations






























Interactive Weather Map
Tropical Storm Tracking
New forecast layout! Learn more

10-Day Weather Forecast

Advertisements
Track Severe Weather on mobile